KFTK

Godman AAF Airport

Fort Knox, Kentucky, USA
TAF KFTK 201700Z 2017/2123 32010G15KT 9999 FEW100 QNH3019INS BECMG 2022/2023 36009KT 9999 BKN065 OVC100 QNH3020INS BECMG 2105/2106 VRB06KT 9999 SKC QNH3030INS TXM05/2019Z TNM10/2113Z
Issued Valid From Valid To
Jan-20 @ 17:00 UTC
(4 hours ago)
Jan-20 @ 17:00 UTC
(4 hours ago)
Jan-21 @ 23:00 UTC
(-1 days ago)
Jan-20 @ 17:00 to Jan-20 @ 22:00
TAF KFTK 201700Z 2017/2123 32010G15KT 9999 FEW100 QNH3019INS
Wind Visibility Clouds Readings
320° at 10 knots
 Gusting to 15 knots
Greater than 6 miles
  • Few at 10,000' AGL
Altimeter 30.18" Hg
Pressure 1021.92 hPa
Becoming Jan-20 @ 22:00 to Jan-21 @ 05:00
BECMG 2022/2023 36009KT 9999 BKN065 OVC100 QNH3020INS
Wind Visibility Clouds Readings
360° at 9 knots Greater than 6 miles
  • Broken at 6,500' AGL
  • Overcast at 10,000' AGL
Altimeter 30.21" Hg
Pressure 1022.92 hPa
Becoming Jan-21 @ 05:00 to Jan-21 @ 23:00
BECMG 2105/2106 VRB06KT 9999 SKC QNH3030INS TXM05/2019Z TNM10/2113Z
Wind Visibility Clouds Readings
Variable at 6 knots Greater than 6 miles
  • Clear skies
Altimeter 30.3" Hg
Pressure 1025.92 hPa
TAF KFTK 201700Z 2017/2123 32010G15KT 9999 FEW100 QNH3019INS BECMG 2022/2023 36009KT 9999 BKN065 OVC100 QNH3020INS BECMG 2105/2106 VRB06KT 9999 SKC QNH3030INS TXM05/2019Z TNM10/2113Z
Issued Jan-20 @ 17:00 UTC
(4 hours ago)
Valid From Jan-20 @ 17:00 UTC
(4 hours ago)
Valid To Jan-21 @ 23:00 UTC
(-1 days ago)
Jan-20 @ 17:00 - Jan-20 @ 22:00
Wind Visibility
320° at 10 knots
 Gusting to 15 knots
Greater than 6 miles
Clouds
  • Few at 10,000' AGL
Becoming Jan-20 @ 22:00 - Jan-21 @ 05:00
Wind Visibility
360° at 9 knots Greater than 6 miles
Clouds
  • Broken at 6,500' AGL
  • Overcast at 10,000' AGL
Becoming Jan-21 @ 05:00 - Jan-21 @ 23:00
Wind Visibility
Variable at 6 knots Greater than 6 miles
Clouds
  • Clear skies